KMXF/MXF METAR and TAF weather

Enter ICAO airport designator
Station Type Date Time Source
KMXF METAR 2018/12/18 14:56 UTC NOAA

KMXF 181456Z AUTO 00000KT 10SM CLR 07/07 A3018 RMK AO2 SLP223 T00740070 51020 $


Station Type Date Time Source
KMXF Decoded METAR 2018/12/18 14:56 UTC NOAA

Maxwell Air Force Base / Montgomery, AL, United States (KMXF) 32-23N 086-22W
Dec 18, 2018 - 09:56 AM EST / 2018.12.18 1456 UTC
Wind: Calm:0
Visibility: 10 mile(s):0
Sky conditions: clear
Temperature: 45.3 F (7.4 C)
Dew Point: 44.6 F (7.0 C)
Relative Humidity: 97%
Pressure (altimeter): 30.18 in. Hg (1022 hPa)
Pressure tendency: 0.06 inches (2.0 hPa) higher than three hours ago
ob: KMXF 181456Z AUTO 00000KT 10SM CLR 07/07 A3018 RMK AO2 SLP223 T00740070 51020
cycle: 15

Station Type Date Time Source
KMXF TAF 2018/12/18 14:35 UTC NOAA

TAF
AMD KMXF 181400Z 1814/1918 VRB05KT 1600 BR FEW000 QNH3012INS
TEMPO 1814/1815 0400 FG VV000
BECMG 1814/1815 VRB05KT 9999 NSW SCT200 QNH3009INS
BECMG 1907/1908 09003KT 6000 BR BKN200 QNH3011INS
BECMG 1913/1914 12005KT 9999 NSW OVC200 QNH3005INS TX18/1821Z TN02/1908Z


Example: see airport list